createdAt,value
2019-02-17T00:01:14.183Z,6.60
2019-02-17T00:03:42.578Z,6.60
2019-02-17T00:06:11.017Z,6.60
2019-02-17T00:08:39.455Z,6.50
2019-02-17T00:11:08.116Z,6.50
2019-02-17T00:13:36.824Z,6.50
2019-02-17T00:16:05.253Z,6.40
2019-02-17T00:18:33.958Z,6.40
2019-02-17T00:21:02.657Z,6.30
2019-02-17T00:23:31.084Z,6.30
2019-02-17T00:25:59.779Z,6.20
2019-02-17T00:28:28.432Z,6.20
2019-02-17T00:30:57.214Z,6.20
2019-02-17T00:33:25.954Z,6.10
2019-02-17T00:35:54.429Z,6.10
2019-02-17T00:38:23.173Z,6.00
2019-02-17T00:40:51.838Z,6.00
2019-02-17T00:43:20.574Z,6.00
2019-02-17T00:45:49.318Z,5.90
2019-02-17T00:48:18.105Z,5.90
2019-02-17T00:50:46.811Z,5.90
2019-02-17T00:53:16.006Z,5.90
2019-02-17T00:55:44.732Z,5.80
2019-02-17T00:58:13.140Z,5.80
2019-02-17T01:00:41.884Z,5.70
2019-02-17T01:03:10.604Z,5.60
2019-02-17T01:05:39.794Z,5.60
2019-02-17T01:08:08.288Z,5.60
2019-02-17T01:10:36.955Z,5.60
2019-02-17T01:13:05.433Z,5.50
2019-02-17T01:15:33.854Z,5.50
2019-02-17T01:18:02.266Z,5.50
2019-02-17T01:20:30.981Z,5.40
2019-02-17T01:22:59.404Z,5.40
2019-02-17T01:25:27.815Z,5.40
2019-02-17T01:27:56.493Z,5.40
2019-02-17T01:30:24.899Z,5.40
2019-02-17T01:32:53.299Z,5.40
2019-02-17T01:35:22.011Z,5.40
2019-02-17T01:37:50.732Z,5.40
2019-02-17T01:40:19.437Z,5.40
2019-02-17T01:42:47.846Z,5.30
2019-02-17T01:45:16.279Z,5.20
2019-02-17T01:47:44.677Z,5.20
2019-02-17T01:50:13.451Z,5.20
2019-02-17T01:52:42.165Z,5.20
2019-02-17T01:55:10.593Z,5.20
2019-02-17T01:57:39.003Z,5.20
2019-02-17T02:00:10.779Z,5.10
2019-02-17T02:02:39.480Z,5.00
2019-02-17T02:05:08.324Z,4.90
2019-02-17T02:07:36.967Z,4.90
2019-02-17T02:10:10.143Z,5.00
2019-02-17T02:12:38.854Z,5.00
2019-02-17T02:15:12.289Z,5.10
2019-02-17T02:17:40.981Z,5.10
2019-02-17T02:20:12.325Z,5.10
2019-02-17T02:22:41.068Z,5.10
2019-02-17T02:25:09.626Z,5.10
2019-02-17T02:27:38.351Z,5.10
2019-02-17T02:30:10.313Z,5.10
2019-02-17T02:32:38.710Z,5.00
2019-02-17T02:35:07.280Z,5.00
2019-02-17T02:37:36.052Z,5.00
2019-02-17T02:40:05.253Z,5.00
2019-02-17T02:42:33.956Z,4.90
2019-02-17T02:45:02.680Z,4.90
2019-02-17T02:47:31.401Z,4.90
2019-02-17T02:50:00.214Z,4.90
2019-02-17T02:52:28.728Z,4.80
2019-02-17T02:54:57.438Z,4.80
2019-02-17T02:57:26.115Z,4.80
2019-02-17T02:59:54.845Z,4.80
2019-02-17T03:02:23.570Z,4.70
2019-02-17T03:04:52.295Z,4.70
2019-02-17T03:07:20.984Z,4.70
2019-02-17T03:09:49.419Z,4.70
2019-02-17T03:12:17.836Z,4.70
2019-02-17T03:14:46.522Z,4.70
2019-02-17T03:17:15.231Z,4.70
2019-02-17T03:19:43.634Z,4.70
2019-02-17T03:22:12.370Z,4.60
2019-02-17T03:24:40.801Z,4.60
2019-02-17T03:27:09.563Z,4.60
2019-02-17T03:29:37.967Z,4.60
2019-02-17T03:32:07.185Z,4.60
2019-02-17T03:34:35.597Z,4.60
2019-02-17T03:37:04.000Z,4.50
2019-02-17T03:39:32.761Z,4.50
2019-02-17T03:42:01.452Z,4.50
2019-02-17T03:44:29.861Z,4.50
2019-02-17T03:46:58.591Z,4.40
2019-02-17T03:49:27.340Z,4.40
2019-02-17T03:51:55.736Z,4.40
2019-02-17T03:54:24.162Z,4.40
2019-02-17T03:56:52.986Z,4.40
2019-02-17T03:59:21.685Z,4.40
2019-02-17T04:01:50.382Z,4.30
2019-02-17T04:04:19.107Z,4.30
2019-02-17T04:06:47.527Z,4.30
2019-02-17T04:09:16.220Z,4.30
2019-02-17T04:11:45.066Z,4.20
2019-02-17T04:14:13.741Z,4.30
2019-02-17T04:16:42.452Z,4.20
2019-02-17T04:19:10.874Z,4.20
2019-02-17T04:21:39.369Z,4.20
2019-02-17T04:24:08.094Z,4.20
2019-02-17T04:26:36.492Z,4.20
2019-02-17T04:29:05.191Z,4.20
2019-02-17T04:31:33.897Z,4.20
2019-02-17T04:34:02.320Z,4.20
2019-02-17T04:36:31.021Z,4.10
2019-02-17T04:38:59.828Z,4.10
2019-02-17T04:41:28.548Z,4.10
2019-02-17T04:43:57.260Z,4.10
2019-02-17T04:46:25.971Z,4.10
2019-02-17T04:48:54.693Z,4.10
2019-02-17T04:51:23.403Z,4.10
2019-02-17T04:53:52.108Z,4.10
2019-02-17T04:56:20.835Z,4.10
2019-02-17T04:58:49.341Z,4.10
2019-02-17T05:01:18.035Z,4.10
2019-02-17T05:03:46.477Z,4.10
2019-02-17T05:06:15.161Z,4.10
2019-02-17T05:08:43.585Z,4.10
2019-02-17T05:11:11.993Z,4.10
2019-02-17T05:13:40.664Z,4.00
2019-02-17T05:16:09.394Z,4.10
2019-02-17T05:18:38.107Z,4.00
2019-02-17T05:21:06.805Z,4.00
2019-02-17T05:23:35.221Z,4.00
2019-02-17T05:26:03.931Z,4.00
2019-02-17T05:28:32.344Z,4.00
2019-02-17T05:31:01.059Z,4.00
2019-02-17T05:33:29.766Z,4.00
2019-02-17T05:35:58.482Z,4.00
2019-02-17T05:38:26.875Z,4.00
2019-02-17T05:40:55.583Z,3.90
2019-02-17T05:43:24.404Z,3.90
2019-02-17T05:45:53.106Z,3.90
2019-02-17T05:48:21.837Z,3.90
2019-02-17T05:50:50.308Z,3.90
2019-02-17T05:53:18.745Z,3.90
2019-02-17T05:55:47.159Z,3.90
2019-02-17T05:58:15.605Z,3.80
2019-02-17T06:00:44.400Z,3.80
2019-02-17T06:03:13.183Z,3.80
2019-02-17T06:05:41.612Z,3.80
2019-02-17T06:08:10.026Z,3.80
2019-02-17T06:10:38.695Z,3.80
2019-02-17T06:13:07.409Z,3.80
2019-02-17T06:15:36.115Z,3.80
2019-02-17T06:18:04.854Z,3.80
2019-02-17T06:20:33.608Z,3.70
2019-02-17T06:23:02.377Z,3.70
2019-02-17T06:25:31.073Z,3.70
2019-02-17T06:27:59.494Z,3.70
2019-02-17T06:30:28.188Z,3.70
2019-02-17T06:32:56.909Z,3.70
2019-02-17T06:35:25.614Z,3.70
2019-02-17T06:37:54.032Z,3.60
2019-02-17T06:40:22.728Z,3.60
2019-02-17T06:42:51.471Z,3.60
2019-02-17T06:45:19.901Z,3.60
2019-02-17T06:47:48.314Z,3.60
2019-02-17T06:50:16.995Z,3.60
2019-02-17T06:52:47.120Z,3.60
2019-02-17T06:55:29.861Z,3.60
2019-02-17T06:57:58.598Z,3.60
2019-02-17T07:00:32.116Z,3.70
2019-02-17T07:03:00.874Z,3.60
2019-02-17T07:05:33.976Z,3.70
2019-02-17T07:08:02.642Z,3.60
2019-02-17T07:10:31.389Z,3.70
2019-02-17T07:13:00.077Z,3.70
2019-02-17T07:15:28.797Z,3.70
2019-02-17T07:17:59.126Z,3.70
2019-02-17T07:20:27.717Z,3.80
2019-02-17T07:22:56.140Z,3.80
2019-02-17T07:25:30.188Z,3.80
2019-02-17T07:27:55.341Z,3.80
2019-02-17T07:30:23.740Z,3.90
2019-02-17T07:32:52.423Z,3.90
2019-02-17T07:35:21.148Z,4.00
2019-02-17T07:37:49.903Z,4.10
2019-02-17T07:40:18.638Z,4.10
2019-02-17T07:42:47.351Z,4.20
2019-02-17T07:45:16.047Z,4.30
2019-02-17T07:47:47.799Z,4.30
2019-02-17T07:50:16.569Z,4.40
2019-02-17T07:52:45.278Z,4.50
2019-02-17T07:55:13.779Z,4.60
2019-02-17T07:57:42.525Z,4.60
2019-02-17T08:00:12.285Z,4.70
2019-02-17T08:02:40.691Z,4.80
2019-02-17T08:05:09.730Z,4.90
2019-02-17T08:07:38.395Z,5.00
2019-02-17T08:10:09.011Z,5.00
2019-02-17T08:12:37.411Z,5.10
2019-02-17T08:15:08.473Z,5.20
2019-02-17T08:17:37.240Z,5.30
2019-02-17T08:20:08.961Z,5.40
2019-02-17T08:22:37.722Z,5.50
2019-02-17T08:25:08.015Z,5.60
2019-02-17T08:27:36.810Z,5.70
2019-02-17T08:30:08.634Z,5.80
2019-02-17T08:32:37.381Z,5.90
2019-02-17T08:35:06.518Z,6.00
2019-02-17T08:37:35.226Z,6.10
2019-02-17T08:40:05.876Z,6.20
2019-02-17T08:42:34.594Z,6.20
2019-02-17T08:45:03.021Z,6.30
2019-02-17T08:47:31.788Z,6.30
2019-02-17T08:50:00.530Z,6.30
2019-02-17T08:52:28.930Z,6.30
2019-02-17T08:54:57.750Z,6.40
2019-02-17T08:57:26.465Z,6.50
2019-02-17T08:59:55.160Z,6.60
2019-02-17T09:02:23.590Z,6.70
2019-02-17T09:04:52.271Z,6.90
2019-02-17T09:07:20.704Z,6.90
2019-02-17T09:09:49.383Z,7.00
2019-02-17T09:12:18.094Z,7.20
2019-02-17T09:14:46.815Z,7.30
2019-02-17T09:17:15.268Z,7.30
2019-02-17T09:19:43.674Z,7.50
2019-02-17T09:22:12.084Z,7.50
2019-02-17T09:24:40.872Z,7.70
2019-02-17T09:27:09.576Z,7.80
2019-02-17T09:29:38.263Z,7.90
2019-02-17T09:32:15.760Z,8.00
2019-02-17T09:34:37.114Z,8.00
2019-02-17T09:37:05.569Z,8.10
2019-02-17T09:39:33.967Z,8.20
2019-02-17T09:42:02.652Z,8.20
2019-02-17T09:44:31.348Z,8.30
2019-02-17T09:46:59.764Z,8.40
2019-02-17T09:49:28.463Z,8.50
2019-02-17T09:51:57.175Z,8.60
2019-02-17T09:54:25.910Z,8.80
2019-02-17T09:56:55.942Z,8.90
2019-02-17T09:59:24.502Z,9.00
2019-02-17T10:01:52.928Z,9.10
2019-02-17T10:04:21.327Z,9.20
2019-02-17T10:06:49.762Z,9.40
2019-02-17T10:09:18.528Z,9.50
2019-02-17T10:11:47.225Z,9.60
2019-02-17T10:14:15.706Z,9.80
2019-02-17T10:16:44.443Z,9.80
2019-02-17T10:19:13.143Z,9.90
2019-02-17T10:21:42.362Z,10.00
2019-02-17T10:24:10.771Z,10.00
2019-02-17T10:26:39.479Z,10.10
2019-02-17T10:29:08.209Z,10.30
2019-02-17T10:31:36.908Z,10.40
2019-02-17T10:34:05.649Z,10.60
2019-02-17T10:36:34.085Z,10.60
2019-02-17T10:39:04.473Z,10.70
2019-02-17T10:41:33.195Z,10.90
2019-02-17T10:44:01.611Z,11.00
2019-02-17T10:46:30.294Z,11.20
2019-02-17T10:48:58.720Z,11.30
2019-02-17T10:51:27.121Z,11.50
2019-02-17T10:53:55.830Z,11.60
2019-02-17T10:56:24.537Z,11.70
2019-02-17T10:58:53.253Z,11.80
2019-02-17T11:01:21.982Z,11.90
2019-02-17T11:04:04.939Z,12.00
2019-02-17T11:06:33.643Z,12.20
2019-02-17T11:09:02.062Z,12.30
2019-02-17T11:11:30.462Z,12.40
2019-02-17T11:13:59.143Z,12.50
2019-02-17T11:16:27.991Z,12.60
2019-02-17T11:18:56.782Z,12.80
2019-02-17T11:21:25.484Z,12.90
2019-02-17T11:23:54.190Z,13.10
2019-02-17T11:26:22.625Z,13.20
2019-02-17T11:28:51.604Z,13.40
2019-02-17T11:31:20.045Z,13.80
2019-02-17T11:33:49.077Z,14.40
2019-02-17T11:36:17.996Z,15.20
2019-02-17T11:38:46.651Z,16.10
2019-02-17T11:41:15.399Z,17.20
2019-02-17T11:43:44.076Z,18.30
2019-02-17T11:46:12.799Z,19.20
2019-02-17T11:48:41.506Z,20.10
2019-02-17T11:51:09.976Z,20.70
2019-02-17T11:53:38.711Z,21.20
2019-02-17T11:56:07.423Z,21.70
2019-02-17T11:58:35.853Z,22.00
2019-02-17T12:01:05.402Z,22.30
2019-02-17T12:03:34.271Z,22.50
2019-02-17T12:06:02.752Z,22.60
2019-02-17T12:08:31.520Z,23.10
2019-02-17T12:10:59.931Z,22.90
2019-02-17T12:13:28.622Z,22.90
2019-02-17T12:15:57.326Z,22.90
2019-02-17T12:18:25.814Z,23.10
2019-02-17T12:21:12.386Z,23.10
2019-02-17T12:23:44.900Z,23.10
2019-02-17T12:26:17.789Z,23.30
2019-02-17T12:28:56.959Z,23.60
2019-02-17T12:31:27.277Z,23.60
2019-02-17T12:33:56.001Z,23.60
2019-02-17T12:36:24.417Z,23.70
2019-02-17T12:38:53.148Z,23.70
2019-02-17T12:41:21.815Z,23.60
2019-02-17T12:43:50.539Z,23.60
2019-02-17T12:46:19.239Z,23.60
2019-02-17T12:48:47.669Z,24.10
2019-02-17T12:51:16.113Z,24.70
2019-02-17T12:53:44.861Z,25.30
2019-02-17T12:56:14.146Z,24.70
2019-02-17T12:58:42.673Z,24.70
2019-02-17T13:01:13.399Z,25.00
2019-02-17T13:03:41.766Z,25.20
2019-02-17T13:06:10.463Z,25.90
2019-02-17T13:08:38.886Z,26.60
2019-02-17T13:11:07.304Z,26.70
2019-02-17T13:13:35.781Z,27.20
2019-02-17T13:16:04.194Z,27.20
2019-02-17T13:18:32.902Z,26.80
2019-02-17T13:21:01.362Z,26.70
2019-02-17T13:23:29.802Z,27.30
2019-02-17T13:25:58.529Z,27.60
2019-02-17T13:28:27.264Z,27.30
2019-02-17T13:30:56.047Z,27.60
2019-02-17T13:33:24.789Z,28.00
2019-02-17T13:35:53.177Z,28.40
2019-02-17T13:38:21.613Z,28.40
2019-02-17T13:40:50.040Z,28.40
2019-02-17T13:43:18.450Z,28.90
2019-02-17T13:45:47.132Z,29.10
2019-02-17T13:48:15.899Z,29.40
2019-02-17T13:50:44.650Z,29.40
2019-02-17T13:53:13.446Z,29.10
2019-02-17T13:55:42.148Z,29.30
2019-02-17T13:58:10.865Z,29.50
2019-02-17T14:00:39.438Z,29.60
2019-02-17T14:03:07.891Z,29.30
2019-02-17T14:05:36.329Z,29.50
2019-02-17T14:08:05.090Z,29.20
2019-02-17T14:10:33.516Z,29.20
2019-02-17T14:13:01.960Z,29.10
2019-02-17T14:15:30.729Z,28.90
2019-02-17T14:17:59.412Z,29.10
2019-02-17T14:20:28.141Z,29.30
2019-02-17T14:22:56.845Z,29.40
2019-02-17T14:25:26.066Z,29.40
2019-02-17T14:27:54.470Z,29.00
2019-02-17T14:30:22.915Z,29.00
2019-02-17T14:32:51.600Z,28.90
2019-02-17T14:35:20.019Z,28.90
2019-02-17T14:37:48.454Z,28.40
2019-02-17T14:40:16.953Z,28.50
2019-02-17T14:42:45.714Z,28.00
2019-02-17T14:45:18.581Z,27.90
2019-02-17T14:47:47.987Z,27.90
2019-02-17T14:50:16.424Z,28.10
2019-02-17T14:52:44.823Z,28.60
2019-02-17T14:55:13.530Z,28.90
2019-02-17T14:57:41.957Z,29.20
2019-02-17T15:00:13.148Z,29.50
2019-02-17T15:02:41.895Z,29.80
2019-02-17T15:05:11.589Z,29.80
2019-02-17T15:07:40.331Z,30.00
2019-02-17T15:10:10.689Z,29.90
2019-02-17T15:12:39.167Z,29.60
2019-02-17T15:15:13.207Z,29.70
2019-02-17T15:17:42.148Z,29.40
2019-02-17T15:20:16.101Z,28.30
2019-02-17T15:22:44.926Z,28.00
2019-02-17T15:25:13.454Z,27.60
2019-02-17T15:27:42.201Z,26.70
2019-02-17T15:30:13.284Z,26.40
2019-02-17T15:32:42.075Z,26.00
2019-02-17T15:35:10.781Z,25.70
2019-02-17T15:37:39.506Z,25.50
2019-02-17T15:40:11.380Z,25.50
2019-02-17T15:42:40.101Z,25.40
2019-02-17T15:45:11.125Z,25.20
2019-02-17T15:47:39.974Z,25.10
2019-02-17T15:50:13.589Z,24.90
2019-02-17T15:52:42.320Z,24.70
2019-02-17T15:55:12.448Z,24.80
2019-02-17T15:57:40.847Z,24.50
2019-02-17T16:00:20.258Z,24.40
2019-02-17T16:02:48.662Z,24.40
2019-02-17T16:05:17.147Z,24.30
2019-02-17T16:07:45.940Z,24.00
2019-02-17T16:10:16.217Z,23.80
2019-02-17T16:12:44.928Z,23.60
2019-02-17T16:15:23.974Z,23.30
2019-02-17T16:17:52.485Z,23.00
2019-02-17T16:20:20.950Z,22.60
2019-02-17T16:22:49.358Z,22.30
2019-02-17T16:25:18.098Z,22.00
2019-02-17T16:27:46.540Z,21.70
2019-02-17T16:30:22.720Z,21.30
2019-02-17T16:32:51.135Z,21.10
2019-02-17T16:35:19.917Z,20.60
2019-02-17T16:37:48.599Z,20.40
2019-02-17T16:40:18.107Z,20.10
2019-02-17T16:42:46.974Z,19.90
2019-02-17T16:45:15.862Z,19.60
2019-02-17T16:47:44.727Z,19.40
2019-02-17T16:50:27.837Z,19.10
2019-02-17T16:52:56.275Z,18.80
2019-02-17T16:55:25.157Z,18.60
2019-02-17T16:57:53.573Z,18.40
2019-02-17T17:00:23.636Z,18.10
2019-02-17T17:02:55.689Z,17.90
2019-02-17T17:05:24.858Z,17.70
2019-02-17T17:07:53.628Z,17.50
2019-02-17T17:10:22.561Z,17.30
2019-02-17T17:12:51.008Z,17.10
2019-02-17T17:15:19.767Z,17.00
2019-02-17T17:17:48.199Z,16.80
2019-02-17T17:20:19.234Z,16.60
2019-02-17T17:22:48.113Z,16.40
2019-02-17T17:25:16.974Z,16.30
2019-02-17T17:27:45.424Z,16.10
2019-02-17T17:30:17.975Z,15.90
2019-02-17T17:32:46.541Z,15.80
2019-02-17T17:35:15.425Z,15.70
2019-02-17T17:37:43.828Z,15.60
2019-02-17T17:40:17.467Z,15.40
2019-02-17T17:42:46.182Z,15.30
2019-02-17T17:45:22.764Z,15.20
2019-02-17T17:47:51.173Z,15.10
2019-02-17T17:50:19.961Z,15.10
2019-02-17T17:52:48.401Z,15.00
2019-02-17T17:55:17.067Z,14.90
2019-02-17T17:57:45.810Z,14.70
2019-02-17T18:00:22.556Z,14.70
2019-02-17T18:02:51.422Z,14.60
2019-02-17T18:05:20.141Z,14.50
2019-02-17T18:07:48.862Z,14.40
2019-02-17T18:10:18.849Z,14.40
2019-02-17T18:12:49.126Z,14.20
2019-02-17T18:15:21.095Z,14.10
2019-02-17T18:17:54.591Z,14.00
2019-02-17T18:20:20.101Z,14.00
2019-02-17T18:22:48.863Z,13.90
2019-02-17T18:25:17.283Z,13.80
2019-02-17T18:27:47.646Z,13.80
2019-02-17T18:30:18.753Z,13.90
2019-02-17T18:32:49.041Z,13.80
2019-02-17T18:35:20.076Z,13.80
2019-02-17T18:37:47.908Z,13.80
2019-02-17T18:40:18.967Z,13.70
2019-02-17T18:42:47.396Z,13.70
2019-02-17T18:45:16.709Z,13.60
2019-02-17T18:47:45.195Z,13.60
2019-02-17T18:50:18.051Z,13.60
2019-02-17T18:52:46.822Z,13.50
2019-02-17T18:55:15.588Z,13.40
2019-02-17T18:57:50.210Z,13.30
2019-02-17T19:00:17.426Z,13.30
2019-02-17T19:02:46.178Z,13.30
2019-02-17T19:05:14.979Z,13.20
2019-02-17T19:07:43.730Z,13.20
2019-02-17T19:10:13.964Z,13.10
2019-02-17T19:12:42.866Z,13.10
2019-02-17T19:15:16.344Z,13.00
2019-02-17T19:17:45.008Z,13.10
2019-02-17T19:20:16.574Z,13.00
2019-02-17T19:22:45.047Z,12.90
2019-02-17T19:25:13.894Z,12.90
2019-02-17T19:27:43.405Z,12.90
2019-02-17T19:30:15.635Z,13.00
2019-02-17T19:32:44.326Z,12.90
2019-02-17T19:35:14.906Z,12.90
2019-02-17T19:37:43.634Z,13.00
2019-02-17T19:40:13.759Z,13.00
2019-02-17T19:42:42.583Z,12.90
2019-02-17T19:45:18.656Z,12.90
2019-02-17T19:47:47.100Z,12.90
2019-02-17T19:50:16.482Z,12.90
2019-02-17T19:52:45.606Z,12.90
2019-02-17T19:55:14.923Z,12.80
2019-02-17T19:57:43.631Z,12.80
2019-02-17T20:00:16.639Z,12.80
2019-02-17T20:02:49.674Z,12.80
2019-02-17T20:05:20.138Z,12.80
2019-02-17T20:07:57.330Z,12.70
2019-02-17T20:10:25.783Z,12.80
2019-02-17T20:12:54.211Z,12.80
2019-02-17T20:15:24.339Z,12.70
2019-02-17T20:20:34.997Z,12.70
2019-02-17T20:23:03.501Z,12.60
2019-02-17T20:25:32.003Z,12.60
2019-02-17T20:28:00.503Z,12.50
2019-02-17T20:30:28.942Z,12.50
2019-02-17T20:32:57.434Z,12.50
2019-02-17T20:35:25.881Z,12.50
2019-02-17T20:37:54.306Z,12.50
2019-02-17T20:40:22.757Z,12.40
2019-02-17T20:42:51.170Z,12.40
2019-02-17T20:45:19.634Z,12.30
2019-02-17T20:47:48.068Z,12.30
2019-02-17T20:50:17.634Z,12.30
2019-02-17T20:52:46.086Z,12.20
2019-02-17T20:55:14.803Z,12.20
2019-02-17T20:57:43.207Z,12.20
2019-02-17T21:00:22.557Z,12.20
2019-02-17T21:02:51.267Z,12.10
2019-02-17T21:05:19.907Z,12.10
2019-02-17T21:07:48.338Z,12.10
2019-02-17T21:10:16.748Z,12.10
2019-02-17T21:12:45.454Z,12.10
2019-02-17T21:15:16.208Z,12.00
2019-02-17T21:17:44.607Z,12.00
2019-02-17T21:20:13.693Z,11.90
2019-02-17T21:22:42.095Z,11.90
2019-02-17T21:25:11.854Z,11.90
2019-02-17T21:27:40.284Z,11.80
2019-02-17T21:30:12.396Z,11.70
2019-02-17T21:32:41.083Z,11.70
2019-02-17T21:35:12.212Z,11.70
2019-02-17T21:37:40.632Z,11.60
2019-02-17T21:40:11.238Z,11.50
2019-02-17T21:42:39.753Z,11.40
2019-02-17T21:45:13.667Z,11.40
2019-02-17T21:47:42.384Z,11.40
2019-02-17T21:50:12.034Z,11.40
2019-02-17T21:52:41.878Z,11.40
2019-02-17T21:55:13.409Z,11.40
2019-02-17T21:57:41.913Z,11.40
2019-02-17T22:00:19.461Z,11.30
2019-02-17T22:02:48.018Z,11.30
2019-02-17T22:05:16.695Z,11.30
2019-02-17T22:07:45.133Z,11.40
2019-02-17T22:10:17.942Z,11.30
2019-02-17T22:12:46.385Z,11.30
2019-02-17T22:15:23.278Z,11.30
2019-02-17T22:17:52.066Z,11.30
2019-02-17T22:20:20.480Z,11.30
2019-02-17T22:22:48.932Z,11.20
2019-02-17T22:25:17.522Z,11.10
2019-02-17T22:27:46.244Z,11.10
2019-02-17T22:30:15.669Z,11.00
2019-02-17T22:32:44.220Z,10.90
2019-02-17T22:35:12.662Z,10.90
2019-02-17T22:37:41.094Z,10.80
2019-02-17T22:40:12.098Z,10.80
2019-02-17T22:42:40.515Z,10.80
2019-02-17T22:45:11.053Z,10.70
2019-02-17T22:47:39.569Z,10.60
2019-02-17T22:50:10.522Z,10.50
2019-02-17T22:52:39.162Z,10.50
2019-02-17T22:55:12.535Z,10.30
2019-02-17T22:57:41.499Z,10.20
2019-02-17T23:00:15.914Z,10.10
2019-02-17T23:02:44.341Z,10.10
2019-02-17T23:05:13.127Z,10.10
2019-02-17T23:07:41.538Z,10.00
2019-02-17T23:10:11.693Z,10.00
2019-02-17T23:12:40.540Z,10.00
2019-02-17T23:15:09.326Z,10.00
2019-02-17T23:17:38.550Z,9.90
2019-02-17T23:20:08.026Z,9.80
2019-02-17T23:22:36.754Z,9.70
2019-02-17T23:25:08.195Z,9.70
2019-02-17T23:27:36.927Z,9.60
2019-02-17T23:30:07.513Z,9.50
2019-02-17T23:32:35.913Z,9.40
2019-02-17T23:35:04.997Z,9.40
2019-02-17T23:37:33.774Z,9.30
2019-02-17T23:40:02.488Z,9.20
2019-02-17T23:42:30.894Z,9.20
2019-02-17T23:44:59.303Z,9.10
2019-02-17T23:47:27.815Z,9.00
2019-02-17T23:49:56.254Z,9.00
2019-02-17T23:52:24.670Z,8.90
2019-02-17T23:54:53.420Z,8.90
2019-02-17T23:57:22.144Z,8.80
2019-02-17T23:59:50.578Z,8.80
